sensor_id;sensor_type;location;lat;lon;timestamp;pressure;altitude;pressure_sealevel;temperature;humidity
48606;BME280;8482;54.396;18.590;2023-01-28T07:55:40;102549.88;;;2.12;62.24
48606;BME280;8482;54.396;18.590;2023-01-28T07:58:09;102549.88;;;2.12;62.05
48606;BME280;8482;54.396;18.590;2023-01-28T08:00:37;102541.13;;;2.13;62.58
48606;BME280;8482;54.396;18.590;2023-01-28T08:03:10;102545.44;;;2.16;62.23
48606;BME280;8482;54.396;18.590;2023-01-28T08:08:08;102532.34;;;2.18;62.03
48606;BME280;8482;54.396;18.590;2023-01-28T08:10:35;102525.31;;;2.21;61.50
48606;BME280;8482;54.396;18.590;2023-01-28T08:13:01;102531.41;;;2.23;62.20
48606;BME280;8482;54.396;18.590;2023-01-28T08:15:27;102533.97;;;2.25;61.54
48606;BME280;8482;54.396;18.590;2023-01-28T08:17:55;102532.22;;;2.25;60.88
48606;BME280;8482;54.396;18.590;2023-01-28T08:20:24;102526.97;;;2.25;61.00
48606;BME280;8482;54.396;18.590;2023-01-28T08:22:50;102524.38;;;2.24;61.24
48606;BME280;8482;54.396;18.590;2023-01-28T08:25:16;102527.00;;;2.24;61.12
48606;BME280;8482;54.396;18.590;2023-01-28T08:27:41;102540.97;;;2.24;60.71
48606;BME280;8482;54.396;18.590;2023-01-28T08:30:08;102530.50;;;2.23;60.86
48606;BME280;8482;54.396;18.590;2023-01-28T08:32:35;102534.88;;;2.24;60.88
48606;BME280;8482;54.396;18.590;2023-01-28T08:35:02;102530.53;;;2.21;61.11
48606;BME280;8482;54.396;18.590;2023-01-28T08:37:28;102543.53;;;2.27;60.17
48606;BME280;8482;54.396;18.590;2023-01-28T08:39:54;102546.16;;;2.29;60.38
48606;BME280;8482;54.396;18.590;2023-01-28T08:42:20;102539.97;;;2.32;60.03
48606;BME280;8482;54.396;18.590;2023-01-28T08:44:45;102543.44;;;2.34;59.91
48606;BME280;8482;54.396;18.590;2023-01-28T08:47:13;102537.31;;;2.33;59.92
48606;BME280;8482;54.396;18.590;2023-01-28T08:49:39;102538.19;;;2.35;59.54
48606;BME280;8482;54.396;18.590;2023-01-28T08:52:05;102544.25;;;2.37;59.35
48606;BME280;8482;54.396;18.590;2023-01-28T08:54:32;102544.22;;;2.40;59.46
48606;BME280;8482;54.396;18.590;2023-01-28T08:56:58;102540.72;;;2.40;59.31
48606;BME280;8482;54.396;18.590;2023-01-28T08:59:24;102549.41;;;2.43;58.91
48606;BME280;8482;54.396;18.590;2023-01-28T09:01:50;102553.78;;;2.44;59.14
48606;BME280;8482;54.396;18.590;2023-01-28T09:04:16;102544.09;;;2.47;59.11
48606;BME280;8482;54.396;18.590;2023-01-28T09:06:42;102539.75;;;2.45;58.67
48606;BME280;8482;54.396;18.590;2023-01-28T09:09:07;102545.00;;;2.45;58.14
48606;BME280;8482;54.396;18.590;2023-01-28T09:11:33;102543.22;;;2.48;58.63
48606;BME280;8482;54.396;18.590;2023-01-28T09:13:59;102544.94;;;2.50;58.55
48606;BME280;8482;54.396;18.590;2023-01-28T09:16:25;102542.25;;;2.53;58.00
48606;BME280;8482;54.396;18.590;2023-01-28T09:18:51;102538.78;;;2.53;58.08
48606;BME280;8482;54.396;18.590;2023-01-28T09:21:19;102536.97;;;2.58;58.48
48606;BME280;8482;54.396;18.590;2023-01-28T09:23:45;102533.41;;;2.59;58.37
48606;BME280;8482;54.396;18.590;2023-01-28T09:26:11;102548.22;;;2.63;57.95
48606;BME280;8482;54.396;18.590;2023-01-28T09:28:37;102543.84;;;2.64;57.90
48606;BME280;8482;54.396;18.590;2023-01-28T09:31:08;102549.91;;;2.66;58.25
48606;BME280;8482;54.396;18.590;2023-01-28T09:33:37;102541.19;;;2.65;58.54
48606;BME280;8482;54.396;18.590;2023-01-28T09:36:06;102547.25;;;2.70;58.34
48606;BME280;8482;54.396;18.590;2023-01-28T09:38:32;102550.66;;;2.72;58.83
48606;BME280;8482;54.396;18.590;2023-01-28T09:50:07;102546.94;;;2.86;58.06
48606;BME280;8482;54.396;18.590;2023-01-28T09:52:38;102537.31;;;2.88;58.12
48606;BME280;8482;54.396;18.590;2023-01-28T09:55:18;102535.47;;;2.91;58.13
48606;BME280;8482;54.396;18.590;2023-01-28T09:57:52;102538.94;;;2.95;58.06
48606;BME280;8482;54.396;18.590;2023-01-28T10:00:30;102535.44;;;2.95;57.41
48606;BME280;8482;54.396;18.590;2023-01-28T10:09:12;102538.91;;;2.97;57.37
48606;BME280;8482;54.396;18.590;2023-01-28T10:15:20;102531.09;;;2.94;56.89
48606;BME280;8482;54.396;18.590;2023-01-28T10:17:53;102518.81;;;2.96;57.43
48606;BME280;8482;54.396;18.590;2023-01-28T10:20:28;102509.22;;;2.95;57.28
48606;BME280;8482;54.396;18.590;2023-01-28T10:26:04;102520.59;;;2.95;56.94
48606;BME280;8482;54.396;18.590;2023-01-28T10:28:35;102503.97;;;2.95;57.12
48606;BME280;8482;54.396;18.590;2023-01-28T10:31:01;102511.00;;;2.94;56.79
48606;BME280;8482;54.396;18.590;2023-01-28T10:35:54;102517.94;;;2.97;57.09
48606;BME280;8482;54.396;18.590;2023-01-28T10:38:23;102503.03;;;2.99;57.41
48606;BME280;8482;54.396;18.590;2023-01-28T10:40:51;102490.78;;;2.99;57.61
48606;BME280;8482;54.396;18.590;2023-01-28T10:43:24;102495.13;;;3.00;57.74
48606;BME280;8482;54.396;18.590;2023-01-28T10:46:08;102493.34;;;3.02;57.11
48606;BME280;8482;54.396;18.590;2023-01-28T10:48:45;102489.00;;;3.03;57.10
48606;BME280;8482;54.396;18.590;2023-01-28T10:51:13;102497.69;;;3.03;56.63
48606;BME280;8482;54.396;18.590;2023-01-28T10:53:42;102484.59;;;3.03;56.31
48606;BME280;8482;54.396;18.590;2023-01-28T10:56:30;102473.22;;;3.04;56.73
48606;BME280;8482;54.396;18.590;2023-01-28T10:59:16;102478.41;;;3.06;56.50
48606;BME280;8482;54.396;18.590;2023-01-28T11:01:53;102481.03;;;3.06;55.94
48606;BME280;8482;54.396;18.590;2023-01-28T11:04:26;102488.06;;;3.05;55.78
48606;BME280;8482;54.396;18.590;2023-01-28T11:07:17;102480.22;;;3.04;56.07
48606;BME280;8482;54.396;18.590;2023-01-28T11:09:48;102474.94;;;3.05;56.16
48606;BME280;8482;54.396;18.590;2023-01-28T11:12:25;102474.94;;;3.05;56.05
48606;BME280;8482;54.396;18.590;2023-01-28T11:15:01;102474.97;;;3.04;55.47
48606;BME280;8482;54.396;18.590;2023-01-28T11:17:33;102474.94;;;3.05;55.81
48606;BME280;8482;54.396;18.590;2023-01-28T11:20:20;102478.38;;;3.09;55.65
48606;BME280;8482;54.396;18.590;2023-01-28T11:22:48;102478.31;;;3.12;56.15
48606;BME280;8482;54.396;18.590;2023-01-28T11:25:28;102476.47;;;3.17;55.97
48606;BME280;8482;54.396;18.590;2023-01-28T11:27:55;102477.28;;;3.19;55.31
48606;BME280;8482;54.396;18.590;2023-01-28T11:30:26;102476.38;;;3.22;55.70
48606;BME280;8482;54.396;18.590;2023-01-28T11:33:01;102471.03;;;3.25;55.89
48606;BME280;8482;54.396;18.590;2023-01-28T11:35:30;102461.44;;;3.26;55.54
48606;BME280;8482;54.396;18.590;2023-01-28T11:37:58;102463.13;;;3.28;56.03
48606;BME280;8482;54.396;18.590;2023-01-28T11:40:25;102459.66;;;3.28;55.69
48606;BME280;8482;54.396;18.590;2023-01-28T11:42:53;102466.63;;;3.27;55.47
48606;BME280;8482;54.396;18.590;2023-01-28T11:45:42;102443.91;;;3.28;55.47
48606;BME280;8482;54.396;18.590;2023-01-28T11:54:32;102450.78;;;3.32;54.91
48606;BME280;8482;54.396;18.590;2023-01-28T12:03:18;102430.69;;;3.32;55.36
48606;BME280;8482;54.396;18.590;2023-01-28T12:05:52;102440.28;;;3.33;55.37
48606;BME280;8482;54.396;18.590;2023-01-28T12:23:57;102421.00;;;3.36;55.40
48606;BME280;8482;54.396;18.590;2023-01-28T12:31:37;102410.44;;;3.39;55.37
48606;BME280;8482;54.396;18.590;2023-01-28T12:49:13;102379.81;;;3.40;55.82
48606;BME280;8482;54.396;18.590;2023-01-28T12:57:27;102373.66;;;3.42;56.19
48606;BME280;8482;54.396;18.590;2023-01-28T13:06:11;102374.38;;;3.47;55.83
48606;BME280;8482;54.396;18.590;2023-01-28T13:08:40;102370.03;;;3.46;55.82
48606;BME280;8482;54.396;18.590;2023-01-28T13:11:13;102368.22;;;3.50;56.29
48606;BME280;8482;54.396;18.590;2023-01-28T13:13:44;102363.78;;;3.52;55.95
48606;BME280;8482;54.396;18.590;2023-01-28T13:16:12;102357.63;;;3.55;56.08
48606;BME280;8482;54.396;18.590;2023-01-28T13:24:19;102343.59;;;3.56;55.85
48606;BME280;8482;54.396;18.590;2023-01-28T13:26:49;102341.88;;;3.55;55.82
48606;BME280;8482;54.396;18.590;2023-01-28T13:31:52;102335.69;;;3.57;56.16
48606;BME280;8482;54.396;18.590;2023-01-28T13:34:42;102330.44;;;3.57;55.82
48606;BME280;8482;54.396;18.590;2023-01-28T13:37:32;102333.00;;;3.59;55.53
48606;BME280;8482;54.396;18.590;2023-01-28T13:42:40;102334.75;;;3.60;55.91
48606;BME280;8482;54.396;18.590;2023-01-28T13:45:25;102334.72;;;3.61;56.50
48606;BME280;8482;54.396;18.590;2023-01-28T13:48:21;102341.72;;;3.61;56.08
48606;BME280;8482;54.396;18.590;2023-01-28T13:50:52;102341.69;;;3.62;55.92
48606;BME280;8482;54.396;18.590;2023-01-28T13:53:44;102337.38;;;3.60;55.79
48606;BME280;8482;54.396;18.590;2023-01-28T13:56:25;102331.19;;;3.62;56.20
48606;BME280;8482;54.396;18.590;2023-01-28T14:16:23;102308.44;;;3.63;57.27
48606;BME280;8482;54.396;18.590;2023-01-28T14:18:58;102303.22;;;3.61;57.24
48606;BME280;8482;54.396;18.590;2023-01-28T14:21:27;102296.25;;;3.60;57.60
48606;BME280;8482;54.396;18.590;2023-01-28T14:23:58;102297.97;;;3.61;57.89
48606;BME280;8482;54.396;18.590;2023-01-28T14:27:20;102295.34;;;3.61;57.68
48606;BME280;8482;54.396;18.590;2023-01-28T14:30:28;102294.53;;;3.59;57.66
48606;BME280;8482;54.396;18.590;2023-01-28T14:32:56;102293.63;;;3.60;57.76
48606;BME280;8482;54.396;18.590;2023-01-28T14:35:34;102288.41;;;3.59;57.23
48606;BME280;8482;54.396;18.590;2023-01-28T14:38:16;102284.06;;;3.58;57.55
48606;BME280;8482;54.396;18.590;2023-01-28T14:40:44;102278.91;;;3.55;57.62
48606;BME280;8482;54.396;18.590;2023-01-28T14:43:24;102285.91;;;3.54;57.36
48606;BME280;8482;54.396;18.590;2023-01-28T14:46:38;102290.31;;;3.52;57.69
48606;BME280;8482;54.396;18.590;2023-01-28T14:49:24;102299.09;;;3.51;57.65
48606;BME280;8482;54.396;18.590;2023-01-28T14:52:32;102304.38;;;3.49;57.47
48606;BME280;8482;54.396;18.590;2023-01-28T14:55:39;102300.06;;;3.47;58.32
48606;BME280;8482;54.396;18.590;2023-01-28T14:58:31;102297.47;;;3.45;58.46
48606;BME280;8482;54.396;18.590;2023-01-28T15:01:01;102291.44;;;3.42;58.50
48606;BME280;8482;54.396;18.590;2023-01-28T15:03:29;102288.81;;;3.43;58.25
48606;BME280;8482;54.396;18.590;2023-01-28T15:08:52;102316.84;;;3.41;57.91
48606;BME280;8482;54.396;18.590;2023-01-28T15:11:25;102329.94;;;3.41;57.29
48606;BME280;8482;54.396;18.590;2023-01-28T15:13:57;102330.84;;;3.40;57.69
48606;BME280;8482;54.396;18.590;2023-01-28T15:16:28;102332.63;;;3.38;58.09
48606;BME280;8482;54.396;18.590;2023-01-28T15:19:00;102337.00;;;3.37;57.29
48606;BME280;8482;54.396;18.590;2023-01-28T15:21:29;102336.09;;;3.38;57.87
48606;BME280;8482;54.396;18.590;2023-01-28T15:23:58;102342.25;;;3.37;57.50
48606;BME280;8482;54.396;18.590;2023-01-28T15:26:28;102337.09;;;3.34;57.30
48606;BME280;8482;54.396;18.590;2023-01-28T15:28:56;102358.09;;;3.33;57.01
48606;BME280;8482;54.396;18.590;2023-01-28T15:31:24;102351.13;;;3.32;57.45
48606;BME280;8482;54.396;18.590;2023-01-28T15:34:14;102354.63;;;3.32;57.42
48606;BME280;8482;54.396;18.590;2023-01-28T15:36:40;102349.38;;;3.32;57.68
48606;BME280;8482;54.396;18.590;2023-01-28T15:39:19;102358.13;;;3.31;58.21
48606;BME280;8482;54.396;18.590;2023-01-28T15:42:02;102363.44;;;3.30;57.75
48606;BME280;8482;54.396;18.590;2023-01-28T15:47:01;102354.72;;;3.28;58.06
48606;BME280;8482;54.396;18.590;2023-01-28T15:49:34;102350.38;;;3.27;58.16
48606;BME280;8482;54.396;18.590;2023-01-28T15:52:02;102354.75;;;3.26;57.90
48606;BME280;8482;54.396;18.590;2023-01-28T15:54:29;102347.78;;;3.25;58.66
48606;BME280;8482;54.396;18.590;2023-01-28T15:56:56;102355.63;;;3.25;58.18
48606;BME280;8482;54.396;18.590;2023-01-28T15:59:32;102352.16;;;3.25;58.73
48606;BME280;8482;54.396;18.590;2023-01-28T16:02:25;102345.19;;;3.24;58.91
48606;BME280;8482;54.396;18.590;2023-01-28T16:05:05;102339.13;;;3.21;58.15
48606;BME280;8482;54.396;18.590;2023-01-28T16:07:44;102337.38;;;3.22;58.47
48606;BME280;8482;54.396;18.590;2023-01-28T16:10:25;102334.75;;;3.22;59.33
48606;BME280;8482;54.396;18.590;2023-01-28T16:15:25;102331.31;;;3.20;58.90
48606;BME280;8482;54.396;18.590;2023-01-28T16:17:51;102332.19;;;3.19;58.80
48606;BME280;8482;54.396;18.590;2023-01-28T16:20:27;102332.19;;;3.19;58.87
48606;BME280;8482;54.396;18.590;2023-01-28T16:22:57;102334.81;;;3.19;58.82
48606;BME280;8482;54.396;18.590;2023-01-28T16:25:28;102333.09;;;3.18;59.49
48606;BME280;8482;54.396;18.590;2023-01-28T16:27:58;102336.59;;;3.17;58.79
48606;BME280;8482;54.396;18.590;2023-01-28T16:30:25;102348.00;;;3.16;59.02
48606;BME280;8482;54.396;18.590;2023-01-28T16:32:52;102350.59;;;3.16;59.33
48606;BME280;8482;54.396;18.590;2023-01-28T16:35:28;102332.31;;;3.13;59.33
48606;BME280;8482;54.396;18.590;2023-01-28T16:37:54;102328.84;;;3.12;59.30
48606;BME280;8482;54.396;18.590;2023-01-28T16:40:22;102329.75;;;3.11;59.57
48606;BME280;8482;54.396;18.590;2023-01-28T16:42:52;102323.66;;;3.09;60.07
48606;BME280;8482;54.396;18.590;2023-01-28T16:45:24;102314.13;;;3.06;59.74
48606;BME280;8482;54.396;18.590;2023-01-28T16:47:51;102310.66;;;3.04;59.54
48606;BME280;8482;54.396;18.590;2023-01-28T16:50:18;102288.91;;;2.99;59.54
48606;BME280;8482;54.396;18.590;2023-01-28T16:52:49;102293.34;;;2.97;59.57
48606;BME280;8482;54.396;18.590;2023-01-28T16:55:19;102290.75;;;2.96;59.76
48606;BME280;8482;54.396;18.590;2023-01-28T16:57:52;102295.19;;;2.92;59.89
48606;BME280;8482;54.396;18.590;2023-01-28T17:00:25;102290.06;;;2.87;59.44
48606;BME280;8482;54.396;18.590;2023-01-28T17:02:53;102295.31;;;2.86;60.02
48606;BME280;8482;54.396;18.590;2023-01-28T17:05:20;102303.28;;;2.83;60.58
48606;BME280;8482;54.396;18.590;2023-01-28T17:07:48;102296.31;;;2.80;61.03
48606;BME280;8482;54.396;18.590;2023-01-28T17:10:15;102305.13;;;2.78;60.49
48606;BME280;8482;54.396;18.590;2023-01-28T17:12:42;102293.84;;;2.74;60.78
48606;BME280;8482;54.396;18.590;2023-01-28T17:15:08;102300.81;;;2.73;60.84
48606;BME280;8482;54.396;18.590;2023-01-28T17:17:34;102297.38;;;2.71;60.66
48606;BME280;8482;54.396;18.590;2023-01-28T17:20:00;102300.94;;;2.69;61.07
48606;BME280;8482;54.396;18.590;2023-01-28T17:22:26;102309.66;;;2.69;61.06
48606;BME280;8482;54.396;18.590;2023-01-28T17:24:52;102316.72;;;2.66;60.69
48606;BME280;8482;54.396;18.590;2023-01-28T17:27:18;102305.47;;;2.60;61.09
48606;BME280;8482;54.396;18.590;2023-01-28T17:29:43;102292.38;;;2.60;61.33
48606;BME280;8482;54.396;18.590;2023-01-28T17:32:09;102288.88;;;2.62;61.11
48606;BME280;8482;54.396;18.590;2023-01-28T17:34:35;102279.28;;;2.60;61.47
48606;BME280;8482;54.396;18.590;2023-01-28T17:37:01;102292.38;;;2.59;61.36
48606;BME280;8482;54.396;18.590;2023-01-28T17:39:27;102299.41;;;2.58;61.66
48606;BME280;8482;54.396;18.590;2023-01-28T17:41:53;102302.06;;;2.55;61.61
48606;BME280;8482;54.396;18.590;2023-01-28T17:44:20;102282.91;;;2.53;61.60
48606;BME280;8482;54.396;18.590;2023-01-28T17:46:46;102287.38;;;2.48;61.87
48606;BME280;8482;54.396;18.590;2023-01-28T17:49:13;102290.03;;;2.47;61.20
48606;BME280;8482;54.396;18.590;2023-01-28T17:51:39;102287.47;;;2.43;61.68
48606;BME280;8482;54.396;18.590;2023-01-28T17:54:05;102287.53;;;2.40;61.88
48606;BME280;8482;54.396;18.590;2023-01-28T17:56:31;102284.03;;;2.40;61.77
48606;BME280;8482;54.396;18.590;2023-01-28T17:59:01;102291.09;;;2.38;61.84
48606;BME280;8482;54.396;18.590;2023-01-28T18:01:29;102273.66;;;2.37;61.89
48606;BME280;8482;54.396;18.590;2023-01-28T18:03:57;102271.03;;;2.35;62.39
48606;BME280;8482;54.396;18.590;2023-01-28T18:06:23;102270.22;;;2.33;62.49
48606;BME280;8482;54.396;18.590;2023-01-28T18:08:50;102268.47;;;2.34;62.50
48606;BME280;8482;54.396;18.590;2023-01-28T18:11:18;102269.31;;;2.34;62.48
48606;BME280;8482;54.396;18.590;2023-01-28T18:13:44;102252.72;;;2.35;62.90
48606;BME280;8482;54.396;18.590;2023-01-28T18:16:14;102244.84;;;2.35;62.49
48606;BME280;8482;54.396;18.590;2023-01-28T18:18:44;102240.56;;;2.33;62.82
48606;BME280;8482;54.396;18.590;2023-01-28T18:23:57;102241.50;;;2.30;62.94
48606;BME280;8482;54.396;18.590;2023-01-28T18:26:23;102251.97;;;2.30;62.78
48606;BME280;8482;54.396;18.590;2023-01-28T18:28:50;102234.47;;;2.30;63.05
48606;BME280;8482;54.396;18.590;2023-01-28T18:31:16;102230.13;;;2.29;62.90
48606;BME280;8482;54.396;18.590;2023-01-28T18:33:42;102224.91;;;2.29;63.23
48606;BME280;8482;54.396;18.590;2023-01-28T18:36:08;102219.66;;;2.31;63.67
48606;BME280;8482;54.396;18.590;2023-01-28T18:38:34;102220.44;;;2.35;63.65
48606;BME280;8482;54.396;18.590;2023-01-28T18:41:00;102223.88;;;2.37;62.98
48606;BME280;8482;54.396;18.590;2023-01-28T18:43:26;102225.63;;;2.38;63.17
48606;BME280;8482;54.396;18.590;2023-01-28T18:45:53;102228.19;;;2.39;63.32
48606;BME280;8482;54.396;18.590;2023-01-28T18:48:20;102238.63;;;2.42;63.55
48606;BME280;8482;54.396;18.590;2023-01-28T18:50:54;102237.72;;;2.43;62.78
48606;BME280;8482;54.396;18.590;2023-01-28T18:53:21;102229.78;;;2.47;63.56
48606;BME280;8482;54.396;18.590;2023-01-28T18:55:47;102248.09;;;2.47;63.18
48606;BME280;8482;54.396;18.590;2023-01-28T18:58:14;102255.06;;;2.49;63.30
48606;BME280;8482;54.396;18.590;2023-01-28T19:00:40;102261.13;;;2.51;63.87
48606;BME280;8482;54.396;18.590;2023-01-28T19:03:05;102268.94;;;2.53;63.20
48606;BME280;8482;54.396;18.590;2023-01-28T19:05:37;102255.78;;;2.56;63.50
48606;BME280;8482;54.396;18.590;2023-01-28T19:08:05;102245.28;;;2.57;63.43
48606;BME280;8482;54.396;18.590;2023-01-28T19:10:32;102253.94;;;2.61;63.49
48606;BME280;8482;54.396;18.590;2023-01-28T19:12:58;102251.25;;;2.64;63.33
48606;BME280;8482;54.396;18.590;2023-01-28T19:15:24;102256.44;;;2.66;63.90
48606;BME280;8482;54.396;18.590;2023-01-28T19:17:50;102255.53;;;2.68;63.37
48606;BME280;8482;54.396;18.590;2023-01-28T19:20:16;102248.56;;;2.67;63.65
48606;BME280;8482;54.396;18.590;2023-01-28T19:22:43;102255.53;;;2.67;63.46
48606;BME280;8482;54.396;18.590;2023-01-28T19:25:09;102253.03;;;2.64;63.02
48606;BME280;8482;54.396;18.590;2023-01-28T19:27:35;102249.53;;;2.63;63.22
48606;BME280;8482;54.396;18.590;2023-01-28T19:30:01;102246.91;;;2.63;63.48
48606;BME280;8482;54.396;18.590;2023-01-28T19:32:26;102255.66;;;2.62;63.68
48606;BME280;8482;54.396;18.590;2023-01-28T19:34:53;102245.13;;;2.65;63.53
48606;BME280;8482;54.396;18.590;2023-01-28T19:37:20;102241.59;;;2.66;64.00
48606;BME280;8482;54.396;18.590;2023-01-28T19:39:46;102247.63;;;2.70;64.10
48606;BME280;8482;54.396;18.590;2023-01-28T19:42:12;102237.94;;;2.73;64.03
48606;BME280;8482;54.396;18.590;2023-01-28T19:44:38;102247.59;;;2.71;63.75
48606;BME280;8482;54.396;18.590;2023-01-28T19:47:04;102245.88;;;2.70;63.30
48606;BME280;8482;54.396;18.590;2023-01-28T19:49:31;102247.59;;;2.71;63.72
48606;BME280;8482;54.396;18.590;2023-01-28T19:51:57;102241.50;;;2.71;63.76
48606;BME280;8482;54.396;18.590;2023-01-28T19:54:24;102234.47;;;2.71;63.53
48606;BME280;8482;54.396;18.590;2023-01-28T19:56:50;102237.09;;;2.71;63.67
48606;BME280;8482;54.396;18.590;2023-01-28T19:59:16;102230.00;;;2.76;64.20
48606;BME280;8482;54.396;18.590;2023-01-28T20:01:44;102229.94;;;2.80;64.46
48606;BME280;8482;54.396;18.590;2023-01-28T20:04:10;102227.28;;;2.81;64.49
48606;BME280;8482;54.396;18.590;2023-01-28T20:06:36;102230.69;;;2.85;63.86
48606;BME280;8482;54.396;18.590;2023-01-28T20:09:13;102227.19;;;2.86;64.30
48606;BME280;8482;54.396;18.590;2023-01-28T20:11:39;102219.25;;;2.89;64.10
48606;BME280;8482;54.396;18.590;2023-01-28T20:14:05;102218.41;;;2.88;63.78
48606;BME280;8482;54.396;18.590;2023-01-28T20:16:33;102219.31;;;2.86;64.03
48606;BME280;8482;54.396;18.590;2023-01-28T20:19:05;102221.91;;;2.87;64.19
48606;BME280;8482;54.396;18.590;2023-01-28T20:21:33;102221.94;;;2.86;63.96
48606;BME280;8482;54.396;18.590;2023-01-28T20:24:01;102229.84;;;2.84;64.14
48606;BME280;8482;54.396;18.590;2023-01-28T20:26:31;102220.31;;;2.82;64.21
48606;BME280;8482;54.396;18.590;2023-01-28T20:31:35;102214.97;;;2.85;64.11
48606;BME280;8482;54.396;18.590;2023-01-28T20:34:02;102221.09;;;2.85;64.38
48606;BME280;8482;54.396;18.590;2023-01-28T20:36:28;102210.72;;;2.81;64.18
48606;BME280;8482;54.396;18.590;2023-01-28T20:38:54;102215.97;;;2.79;64.59
48606;BME280;8482;54.396;18.590;2023-01-28T20:41:23;102210.78;;;2.78;64.56
48606;BME280;8482;54.396;18.590;2023-01-28T20:43:51;102216.91;;;2.76;64.48
48606;BME280;8482;54.396;18.590;2023-01-28T20:46:30;102218.69;;;2.74;64.70
48606;BME280;8482;54.396;18.590;2023-01-28T20:48:58;102206.53;;;2.72;64.80
48606;BME280;8482;54.396;18.590;2023-01-28T20:51:30;102203.88;;;2.73;64.89
48606;BME280;8482;54.396;18.590;2023-01-28T20:53:58;102196.94;;;2.71;64.82
48606;BME280;8482;54.396;18.590;2023-01-28T20:56:26;102203.03;;;2.71;64.83
48606;BME280;8482;54.396;18.590;2023-01-28T20:59:03;102196.94;;;2.71;65.31
48606;BME280;8482;54.396;18.590;2023-01-28T21:01:33;102205.66;;;2.73;65.34
48606;BME280;8482;54.396;18.590;2023-01-28T21:03:59;102207.38;;;2.72;65.38
48606;BME280;8482;54.396;18.590;2023-01-28T21:06:25;102188.13;;;2.75;65.62
48606;BME280;8482;54.396;18.590;2023-01-28T21:08:52;102195.13;;;2.74;65.65
48606;BME280;8482;54.396;18.590;2023-01-28T21:11:20;102195.88;;;2.80;65.41
48606;BME280;8482;54.396;18.590;2023-01-28T21:13:46;102187.13;;;2.79;65.32
48606;BME280;8482;54.396;18.590;2023-01-28T21:16:12;102188.03;;;2.80;64.90
48606;BME280;8482;54.396;18.590;2023-01-28T21:18:38;102180.16;;;2.80;64.97
48606;BME280;8482;54.396;18.590;2023-01-28T21:21:09;102174.09;;;2.78;65.10
48606;BME280;8482;54.396;18.590;2023-01-28T21:23:39;102171.59;;;2.71;64.75
48606;BME280;8482;54.396;18.590;2023-01-28T21:26:05;102182.13;;;2.70;64.99
48606;BME280;8482;54.396;18.590;2023-01-28T21:28:32;102177.84;;;2.66;65.27
48606;BME280;8482;54.396;18.590;2023-01-28T21:31:19;102181.38;;;2.65;64.98
48606;BME280;8482;54.396;18.590;2023-01-28T21:33:51;102170.19;;;2.58;64.84
48606;BME280;8482;54.396;18.590;2023-01-28T21:36:18;102156.34;;;2.51;64.96
48606;BME280;8482;54.396;18.590;2023-01-28T21:38:49;102171.16;;;2.52;65.30
48606;BME280;8482;54.396;18.590;2023-01-28T21:41:15;102166.00;;;2.49;65.90
48606;BME280;8482;54.396;18.590;2023-01-28T21:43:41;102169.47;;;2.50;65.07
48606;BME280;8482;54.396;18.590;2023-01-28T21:46:07;102164.28;;;2.48;65.35
48606;BME280;8482;54.396;18.590;2023-01-28T21:48:33;102181.72;;;2.48;65.38
48606;BME280;8482;54.396;18.590;2023-01-28T21:51:06;102166.84;;;2.50;65.68
48606;BME280;8482;54.396;18.590;2023-01-28T21:53:51;102166.78;;;2.53;65.87
48606;BME280;8482;54.396;18.590;2023-01-28T21:56:17;102161.50;;;2.54;65.26
48606;BME280;8482;54.396;18.590;2023-01-28T21:58:43;102153.66;;;2.54;65.81
48606;BME280;8482;54.396;18.590;2023-01-28T22:01:27;102156.25;;;2.56;65.78
48606;BME280;8482;54.396;18.590;2023-01-28T22:03:53;102155.34;;;2.57;65.72
48606;BME280;8482;54.396;18.590;2023-01-28T22:06:19;102150.13;;;2.57;65.52
48606;BME280;8482;54.396;18.590;2023-01-28T22:08:45;102146.63;;;2.56;65.42
48606;BME280;8482;54.396;18.590;2023-01-28T22:11:11;102135.28;;;2.56;65.10
48606;BME280;8482;54.396;18.590;2023-01-28T22:13:37;102131.78;;;2.57;65.75
48606;BME280;8482;54.396;18.590;2023-01-28T22:16:03;102123.88;;;2.58;65.71
48606;BME280;8482;54.396;18.590;2023-01-28T22:18:29;102101.25;;;2.56;65.48
48606;BME280;8482;54.396;18.590;2023-01-28T22:21:01;102097.59;;;2.62;65.10
48606;BME280;8482;54.396;18.590;2023-01-28T22:23:28;102097.53;;;2.65;65.66
48606;BME280;8482;54.396;18.590;2023-01-28T22:25:55;102104.53;;;2.64;65.52
48606;BME280;8482;54.396;18.590;2023-01-28T22:28:22;102104.47;;;2.67;65.21
48606;BME280;8482;54.396;18.590;2023-01-28T22:30:48;102088.75;;;2.67;65.45
48606;BME280;8482;54.396;18.590;2023-01-28T22:33:14;102083.50;;;2.66;65.03
48606;BME280;8482;54.396;18.590;2023-01-28T22:35:40;102081.00;;;2.63;64.90
48606;BME280;8482;54.396;18.590;2023-01-28T22:38:06;102084.50;;;2.62;65.42
48606;BME280;8482;54.396;18.590;2023-01-28T22:40:33;102082.78;;;2.60;65.19
48606;BME280;8482;54.396;18.590;2023-01-28T22:42:59;102088.88;;;2.61;65.66
48606;BME280;8482;54.396;18.590;2023-01-28T22:45:25;102081.88;;;2.62;65.43
48606;BME280;8482;54.396;18.590;2023-01-28T22:47:51;102070.47;;;2.64;65.73
48606;BME280;8482;54.396;18.590;2023-01-28T22:50:17;102080.00;;;2.67;65.80
48606;BME280;8482;54.396;18.590;2023-01-28T22:52:45;102069.56;;;2.65;65.77
48606;BME280;8482;54.396;18.590;2023-01-28T22:55:11;102078.31;;;2.64;65.15
48606;BME280;8482;54.396;18.590;2023-01-28T22:57:37;102061.78;;;2.62;65.04
48606;BME280;8482;54.396;18.590;2023-01-28T23:00:10;102057.47;;;2.59;65.49
48606;BME280;8482;54.396;18.590;2023-01-28T23:02:37;102061.94;;;2.56;65.80
48606;BME280;8482;54.396;18.590;2023-01-28T23:05:04;102048.13;;;2.49;65.38
